sensor_id;sensor_type;location;lat;lon;timestamp;pressure;altitude;pressure_sealevel;temperature;humidity
10474;BME280;5284;50.446;7.904;2022-10-15T05:13:06;97621.00;;;12.98;100.00
10474;BME280;5284;50.446;7.904;2022-10-15T05:18:11;97638.72;;;12.99;100.00
10474;BME280;5284;50.446;7.904;2022-10-15T05:23:21;97652.25;;;12.97;100.00
10474;BME280;5284;50.446;7.904;2022-10-15T05:28:38;97649.94;;;12.94;100.00
10474;BME280;5284;50.446;7.904;2022-10-15T05:33:41;97646.25;;;12.95;100.00
10474;BME280;5284;50.446;7.904;2022-10-15T05:38:44;97634.88;;;12.93;100.00
10474;BME280;5284;50.446;7.904;2022-10-15T05:43:49;97667.13;;;12.92;100.00
10474;BME280;5284;50.446;7.904;2022-10-15T05:48:58;97674.16;;;12.93;100.00
10474;BME280;5284;50.446;7.904;2022-10-15T05:54:03;97682.34;;;12.91;100.00
10474;BME280;5284;50.446;7.904;2022-10-15T05:59:07;97676.13;;;12.91;100.00
10474;BME280;5284;50.446;7.904;2022-10-15T06:04:10;97681.38;;;12.92;100.00
10474;BME280;5284;50.446;7.904;2022-10-15T06:09:15;97685.88;;;12.92;100.00
10474;BME280;5284;50.446;7.904;2022-10-15T06:14:19;97680.38;;;12.93;100.00
10474;BME280;5284;50.446;7.904;2022-10-15T06:19:22;97675.88;;;12.94;100.00
10474;BME280;5284;50.446;7.904;2022-10-15T06:24:25;97684.72;;;12.94;100.00
10474;BME280;5284;50.446;7.904;2022-10-15T06:29:30;97688.06;;;12.96;100.00
10474;BME280;5284;50.446;7.904;2022-10-15T06:34:35;97698.28;;;13.01;100.00
10474;BME280;5284;50.446;7.904;2022-10-15T06:39:37;97696.59;;;13.08;100.00
10474;BME280;5284;50.446;7.904;2022-10-15T06:44:42;97703.97;;;13.14;100.00
10474;BME280;5284;50.446;7.904;2022-10-15T06:49:49;97718.53;;;13.19;100.00
10474;BME280;5284;50.446;7.904;2022-10-15T06:54:52;97720.38;;;13.19;100.00
10474;BME280;5284;50.446;7.904;2022-10-15T06:59:56;97721.22;;;13.19;100.00
10474;BME280;5284;50.446;7.904;2022-10-15T07:04:59;97719.22;;;13.21;100.00
10474;BME280;5284;50.446;7.904;2022-10-15T07:10:03;97721.88;;;13.21;100.00
10474;BME280;5284;50.446;7.904;2022-10-15T07:15:08;97729.44;;;13.34;100.00
10474;BME280;5284;50.446;7.904;2022-10-15T07:20:11;97731.59;;;13.38;100.00
10474;BME280;5284;50.446;7.904;2022-10-15T07:25:14;97736.63;;;13.49;100.00
10474;BME280;5284;50.446;7.904;2022-10-15T07:30:20;97740.78;;;13.68;100.00
10474;BME280;5284;50.446;7.904;2022-10-15T07:35:26;97741.63;;;13.84;100.00
10474;BME280;5284;50.446;7.904;2022-10-15T07:40:57;97745.91;;;14.09;100.00
10474;BME280;5284;50.446;7.904;2022-10-15T07:46:03;97767.81;;;14.28;100.00
10474;BME280;5284;50.446;7.904;2022-10-15T07:51:06;97764.75;;;14.47;100.00
10474;BME280;5284;50.446;7.904;2022-10-15T07:56:10;97761.53;;;14.60;100.00
10474;BME280;5284;50.446;7.904;2022-10-15T08:01:15;97758.28;;;14.72;100.00
10474;BME280;5284;50.446;7.904;2022-10-15T08:06:43;97748.06;;;14.68;100.00
10474;BME280;5284;50.446;7.904;2022-10-15T08:11:45;97753.00;;;14.87;100.00
10474;BME280;5284;50.446;7.904;2022-10-15T08:16:52;97753.31;;;14.92;100.00
10474;BME280;5284;50.446;7.904;2022-10-15T08:21:55;97754.03;;;14.86;100.00
10474;BME280;5284;50.446;7.904;2022-10-15T08:26:58;97757.81;;;14.99;100.00
10474;BME280;5284;50.446;7.904;2022-10-15T08:32:03;97755.34;;;14.90;100.00
10474;BME280;5284;50.446;7.904;2022-10-15T08:37:06;97758.41;;;14.79;100.00
10474;BME280;5284;50.446;7.904;2022-10-15T08:42:14;97755.72;;;14.79;100.00
10474;BME280;5284;50.446;7.904;2022-10-15T08:47:27;97758.38;;;14.87;100.00
10474;BME280;5284;50.446;7.904;2022-10-15T08:52:40;97756.91;;;15.37;100.00
10474;BME280;5284;50.446;7.904;2022-10-15T08:57:45;97758.69;;;15.44;100.00
10474;BME280;5284;50.446;7.904;2022-10-15T09:02:53;97751.13;;;15.85;100.00
10474;BME280;5284;50.446;7.904;2022-10-15T09:08:03;97750.97;;;16.01;100.00
10474;BME280;5284;50.446;7.904;2022-10-15T09:13:11;97760.34;;;16.05;100.00
10474;BME280;5284;50.446;7.904;2022-10-15T09:18:21;97763.19;;;16.03;100.00
10474;BME280;5284;50.446;7.904;2022-10-15T09:23:26;97770.13;;;15.61;100.00
10474;BME280;5284;50.446;7.904;2022-10-15T09:28:37;97761.72;;;15.64;100.00
10474;BME280;5284;50.446;7.904;2022-10-15T09:33:47;97761.63;;;15.94;100.00
10474;BME280;5284;50.446;7.904;2022-10-15T09:39:04;97762.66;;;16.08;100.00
10474;BME280;5284;50.446;7.904;2022-10-15T09:44:13;97758.22;;;16.15;100.00
10474;BME280;5284;50.446;7.904;2022-10-15T09:49:23;97764.34;;;16.09;100.00
10474;BME280;5284;50.446;7.904;2022-10-15T09:54:40;97762.06;;;15.98;100.00
10474;BME280;5284;50.446;7.904;2022-10-15T09:59:52;97760.25;;;16.13;100.00
10474;BME280;5284;50.446;7.904;2022-10-15T10:05:17;97753.09;;;16.20;100.00
10474;BME280;5284;50.446;7.904;2022-10-15T10:10:23;97758.69;;;16.04;100.00
10474;BME280;5284;50.446;7.904;2022-10-15T10:15:31;97758.97;;;16.09;100.00
10474;BME280;5284;50.446;7.904;2022-10-15T10:20:52;97759.88;;;16.16;100.00
10474;BME280;5284;50.446;7.904;2022-10-15T10:25:55;97767.75;;;16.40;100.00
10474;BME280;5284;50.446;7.904;2022-10-15T10:31:02;97759.34;;;16.64;100.00
10474;BME280;5284;50.446;7.904;2022-10-15T10:36:18;97769.66;;;16.75;100.00
10474;BME280;5284;50.446;7.904;2022-10-15T10:41:22;97761.47;;;16.83;100.00
10474;BME280;5284;50.446;7.904;2022-10-15T10:46:25;97757.72;;;16.98;100.00
10474;BME280;5284;50.446;7.904;2022-10-15T10:51:29;97754.75;;;17.28;100.00
10474;BME280;5284;50.446;7.904;2022-10-15T10:56:35;97749.19;;;17.51;100.00
10474;BME280;5284;50.446;7.904;2022-10-15T11:01:38;97733.22;;;17.70;100.00
10474;BME280;5284;50.446;7.904;2022-10-15T11:06:53;97730.59;;;18.04;100.00
10474;BME280;5284;50.446;7.904;2022-10-15T11:12:09;97730.38;;;17.78;100.00
10474;BME280;5284;50.446;7.904;2022-10-15T11:17:23;97731.03;;;17.80;100.00
10474;BME280;5284;50.446;7.904;2022-10-15T11:22:42;97714.53;;;17.96;100.00
10474;BME280;5284;50.446;7.904;2022-10-15T11:27:57;97713.63;;;18.10;100.00
10474;BME280;5284;50.446;7.904;2022-10-15T11:33:16;97717.97;;;17.84;100.00
10474;BME280;5284;50.446;7.904;2022-10-15T11:38:27;97717.31;;;17.82;100.00
10474;BME280;5284;50.446;7.904;2022-10-15T11:43:44;97720.00;;;17.54;100.00
10474;BME280;5284;50.446;7.904;2022-10-15T11:48:58;97719.38;;;17.80;100.00
10474;BME280;5284;50.446;7.904;2022-10-15T11:54:22;97706.19;;;17.64;100.00
10474;BME280;5284;50.446;7.904;2022-10-15T11:59:36;97688.69;;;17.81;100.00
10474;BME280;5284;50.446;7.904;2022-10-15T12:04:45;97692.56;;;17.72;100.00
10474;BME280;5284;50.446;7.904;2022-10-15T12:09:54;97689.63;;;17.67;100.00
10474;BME280;5284;50.446;7.904;2022-10-15T12:15:12;97683.22;;;17.47;100.00
10474;BME280;5284;50.446;7.904;2022-10-15T12:20:21;97682.56;;;17.66;100.00
10474;BME280;5284;50.446;7.904;2022-10-15T12:25:41;97667.69;;;17.28;100.00
10474;BME280;5284;50.446;7.904;2022-10-15T12:30:56;97666.09;;;17.33;100.00
10474;BME280;5284;50.446;7.904;2022-10-15T12:36:02;97653.91;;;17.37;100.00
10474;BME280;5284;50.446;7.904;2022-10-15T12:41:12;97666.59;;;17.22;100.00
10474;BME280;5284;50.446;7.904;2022-10-15T12:46:15;97665.94;;;17.20;100.00
10474;BME280;5284;50.446;7.904;2022-10-15T12:51:36;97661.97;;;17.16;100.00
10474;BME280;5284;50.446;7.904;2022-10-15T12:56:40;97662.22;;;17.21;100.00
10474;BME280;5284;50.446;7.904;2022-10-15T13:01:50;97658.38;;;17.51;100.00
10474;BME280;5284;50.446;7.904;2022-10-15T13:07:01;97658.09;;;18.01;100.00
10474;BME280;5284;50.446;7.904;2022-10-15T13:12:20;97655.16;;;17.96;100.00
10474;BME280;5284;50.446;7.904;2022-10-15T13:17:24;97658.09;;;18.01;100.00
10474;BME280;5284;50.446;7.904;2022-10-15T13:22:29;97654.81;;;17.72;100.00
10474;BME280;5284;50.446;7.904;2022-10-15T13:27:35;97665.44;;;17.80;100.00
10474;BME280;5284;50.446;7.904;2022-10-15T13:32:43;97654.53;;;17.94;100.00
10474;BME280;5284;50.446;7.904;2022-10-15T13:37:47;97662.63;;;17.94;100.00
10474;BME280;5284;50.446;7.904;2022-10-15T13:42:58;97644.44;;;18.37;100.00
10474;BME280;5284;50.446;7.904;2022-10-15T13:48:01;97652.44;;;18.24;100.00
10474;BME280;5284;50.446;7.904;2022-10-15T13:53:11;97663.78;;;18.47;100.00
10474;BME280;5284;50.446;7.904;2022-10-15T13:58:19;97661.94;;;18.53;100.00
10474;BME280;5284;50.446;7.904;2022-10-15T14:03:29;97663.03;;;18.59;100.00
10474;BME280;5284;50.446;7.904;2022-10-15T14:08:34;97664.47;;;18.21;100.00
10474;BME280;5284;50.446;7.904;2022-10-15T14:13:44;97659.88;;;18.15;100.00
10474;BME280;5284;50.446;7.904;2022-10-15T14:18:49;97654.25;;;18.50;100.00
10474;BME280;5284;50.446;7.904;2022-10-15T14:24:02;97659.50;;;18.25;100.00
10474;BME280;5284;50.446;7.904;2022-10-15T14:29:16;97664.41;;;18.08;100.00
10474;BME280;5284;50.446;7.904;2022-10-15T14:34:29;97665.84;;;18.04;100.00
10474;BME280;5284;50.446;7.904;2022-10-15T14:39:35;97661.59;;;17.95;100.00
10474;BME280;5284;50.446;7.904;2022-10-15T14:44:42;97667.25;;;18.28;100.00
10474;BME280;5284;50.446;7.904;2022-10-15T14:49:45;97667.47;;;18.33;100.00
10474;BME280;5284;50.446;7.904;2022-10-15T14:55:00;97684.09;;;18.09;100.00
10474;BME280;5284;50.446;7.904;2022-10-15T15:00:14;97676.91;;;17.88;100.00
10474;BME280;5284;50.446;7.904;2022-10-15T15:05:20;97669.78;;;17.74;100.00
10474;BME280;5284;50.446;7.904;2022-10-15T15:10:24;97680.91;;;17.65;100.00
10474;BME280;5284;50.446;7.904;2022-10-15T15:15:30;97690.72;;;17.51;100.00
10474;BME280;5284;50.446;7.904;2022-10-15T15:21:01;97675.56;;;17.29;100.00
10474;BME280;5284;50.446;7.904;2022-10-15T15:26:05;97679.28;;;17.28;100.00
10474;BME280;5284;50.446;7.904;2022-10-15T15:31:13;97683.00;;;17.27;100.00
10474;BME280;5284;50.446;7.904;2022-10-15T15:36:17;97687.66;;;17.33;100.00
10474;BME280;5284;50.446;7.904;2022-10-15T15:41:24;97688.41;;;17.27;100.00
10474;BME280;5284;50.446;7.904;2022-10-15T15:46:28;97693.28;;;17.17;100.00
10474;BME280;5284;50.446;7.904;2022-10-15T15:51:31;97692.00;;;17.13;100.00
10474;BME280;5284;50.446;7.904;2022-10-15T15:56:34;97694.53;;;17.00;100.00
10474;BME280;5284;50.446;7.904;2022-10-15T16:01:39;97693.06;;;16.98;100.00
10474;BME280;5284;50.446;7.904;2022-10-15T16:06:42;97703.25;;;16.82;100.00
10474;BME280;5284;50.446;7.904;2022-10-15T16:11:49;97707.72;;;16.75;100.00
10474;BME280;5284;50.446;7.904;2022-10-15T16:16:54;97708.03;;;16.65;100.00
10474;BME280;5284;50.446;7.904;2022-10-15T16:21:58;97727.41;;;16.61;100.00
10474;BME280;5284;50.446;7.904;2022-10-15T16:27:26;97727.34;;;16.54;100.00
10474;BME280;5284;50.446;7.904;2022-10-15T16:32:30;97735.50;;;16.46;100.00
10474;BME280;5284;50.446;7.904;2022-10-15T16:37:34;97747.66;;;16.42;100.00
10474;BME280;5284;50.446;7.904;2022-10-15T16:42:37;97734.31;;;16.34;100.00
10474;BME280;5284;50.446;7.904;2022-10-15T16:47:42;97741.81;;;16.24;100.00
10474;BME280;5284;50.446;7.904;2022-10-15T16:52:44;97749.28;;;16.14;100.00
10474;BME280;5284;50.446;7.904;2022-10-15T16:57:47;97760.50;;;16.03;100.00
10474;BME280;5284;50.446;7.904;2022-10-15T17:02:53;97766.44;;;15.99;100.00
10474;BME280;5284;50.446;7.904;2022-10-15T17:07:56;97776.09;;;15.93;100.00
10474;BME280;5284;50.446;7.904;2022-10-15T17:12:59;97778.00;;;15.85;100.00
10474;BME280;5284;50.446;7.904;2022-10-15T17:18:03;97774.66;;;15.83;100.00
10474;BME280;5284;50.446;7.904;2022-10-15T17:23:06;97785.94;;;15.78;100.00
10474;BME280;5284;50.446;7.904;2022-10-15T17:28:09;97786.16;;;15.77;100.00
10474;BME280;5284;50.446;7.904;2022-10-15T17:33:17;97790.22;;;15.73;100.00
10474;BME280;5284;50.446;7.904;2022-10-15T17:38:24;97791.97;;;15.66;100.00
10474;BME280;5284;50.446;7.904;2022-10-15T17:43:27;97800.56;;;15.61;100.00
10474;BME280;5284;50.446;7.904;2022-10-15T17:48:32;97811.13;;;15.63;100.00
10474;BME280;5284;50.446;7.904;2022-10-15T17:53:36;97823.25;;;15.59;100.00
10474;BME280;5284;50.446;7.904;2022-10-15T17:58:40;97833.34;;;15.57;100.00
10474;BME280;5284;50.446;7.904;2022-10-15T18:03:46;97836.75;;;15.51;100.00
10474;BME280;5284;50.446;7.904;2022-10-15T18:08:53;97845.81;;;15.50;100.00
10474;BME280;5284;50.446;7.904;2022-10-15T18:13:56;97842.84;;;15.45;100.00
10474;BME280;5284;50.446;7.904;2022-10-15T18:19:00;97848.56;;;15.42;100.00
10474;BME280;5284;50.446;7.904;2022-10-15T18:24:03;97864.03;;;15.40;100.00
10474;BME280;5284;50.446;7.904;2022-10-15T18:29:06;97872.63;;;15.35;100.00
10474;BME280;5284;50.446;7.904;2022-10-15T18:34:12;97878.34;;;15.32;100.00
10474;BME280;5284;50.446;7.904;2022-10-15T18:39:14;97878.00;;;15.27;100.00
10474;BME280;5284;50.446;7.904;2022-10-15T18:44:18;97877.34;;;15.26;100.00
10474;BME280;5284;50.446;7.904;2022-10-15T18:49:23;97882.53;;;15.27;100.00
10474;BME280;5284;50.446;7.904;2022-10-15T18:54:26;97898.84;;;15.26;100.00
10474;BME280;5284;50.446;7.904;2022-10-15T18:59:29;97892.81;;;15.24;100.00
10474;BME280;5284;50.446;7.904;2022-10-15T19:04:34;97887.13;;;15.19;100.00
10474;BME280;5284;50.446;7.904;2022-10-15T19:09:37;97887.47;;;15.16;100.00
10474;BME280;5284;50.446;7.904;2022-10-15T19:14:40;97885.13;;;15.13;100.00
10474;BME280;5284;50.446;7.904;2022-10-15T19:19:47;97892.66;;;15.17;100.00
10474;BME280;5284;50.446;7.904;2022-10-15T19:24:51;97882.63;;;15.11;100.00
10474;BME280;5284;50.446;7.904;2022-10-15T19:29:54;97882.31;;;15.06;100.00
10474;BME280;5284;50.446;7.904;2022-10-15T19:34:59;97894.22;;;15.04;100.00
10474;BME280;5284;50.446;7.904;2022-10-15T19:40:03;97895.06;;;15.04;100.00
10474;BME280;5284;50.446;7.904;2022-10-15T19:45:07;97908.31;;;15.06;100.00
10474;BME280;5284;50.446;7.904;2022-10-15T19:50:12;97914.34;;;15.16;100.00
10474;BME280;5284;50.446;7.904;2022-10-15T19:55:17;97921.19;;;15.18;100.00
10474;BME280;5284;50.446;7.904;2022-10-15T20:00:22;97929.25;;;15.18;100.00
10474;BME280;5284;50.446;7.904;2022-10-15T20:05:26;97928.25;;;15.19;100.00
10474;BME280;5284;50.446;7.904;2022-10-15T20:10:29;97934.13;;;15.23;100.00
10474;BME280;5284;50.446;7.904;2022-10-15T20:15:32;97943.00;;;15.23;100.00
10474;BME280;5284;50.446;7.904;2022-10-15T20:20:38;97925.50;;;15.27;100.00
10474;BME280;5284;50.446;7.904;2022-10-15T20:25:42;97926.53;;;15.26;100.00
10474;BME280;5284;50.446;7.904;2022-10-15T20:30:45;97942.84;;;15.25;100.00
10474;BME280;5284;50.446;7.904;2022-10-15T20:35:51;97964.50;;;15.23;100.00
10474;BME280;5284;50.446;7.904;2022-10-15T20:40:54;97977.75;;;15.25;100.00
10474;BME280;5284;50.446;7.904;2022-10-15T20:45:57;97977.75;;;15.25;100.00
10474;BME280;5284;50.446;7.904;2022-10-15T20:51:04;97980.81;;;15.22;100.00
10474;BME280;5284;50.446;7.904;2022-10-15T20:56:09;97991.53;;;15.22;100.00
10474;BME280;5284;50.446;7.904;2022-10-15T21:01:12;97993.72;;;15.18;100.00
10474;BME280;5284;50.446;7.904;2022-10-15T21:06:16;98011.69;;;15.10;100.00
10474;BME280;5284;50.446;7.904;2022-10-15T21:11:20;98020.09;;;15.07;100.00
10474;BME280;5284;50.446;7.904;2022-10-15T21:16:23;98006.53;;;15.00;100.00
10474;BME280;5284;50.446;7.904;2022-10-15T21:21:30;98009.03;;;15.02;100.00
10474;BME280;5284;50.446;7.904;2022-10-15T21:26:33;98013.09;;;14.98;100.00
10474;BME280;5284;50.446;7.904;2022-10-15T21:31:36;98010.06;;;14.93;100.00
10474;BME280;5284;50.446;7.904;2022-10-15T21:36:40;98010.91;;;14.85;100.00
10474;BME280;5284;50.446;7.904;2022-10-15T21:41:43;98021.47;;;14.79;100.00
10474;BME280;5284;50.446;7.904;2022-10-15T21:46:46;98029.41;;;14.72;100.00
10474;BME280;5284;50.446;7.904;2022-10-15T21:51:50;98034.09;;;14.70;100.00
10474;BME280;5284;50.446;7.904;2022-10-15T21:56:53;98037.78;;;14.69;100.00
10474;BME280;5284;50.446;7.904;2022-10-15T22:01:56;98042.31;;;14.69;100.00
10474;BME280;5284;50.446;7.904;2022-10-15T22:07:00;98039.47;;;14.70;100.00
10474;BME280;5284;50.446;7.904;2022-10-15T22:12:04;98044.84;;;14.70;100.00
10474;BME280;5284;50.446;7.904;2022-10-15T22:17:06;98051.22;;;14.69;100.00
10474;BME280;5284;50.446;7.904;2022-10-15T22:22:11;98049.19;;;14.71;100.00
10474;BME280;5284;50.446;7.904;2022-10-15T22:27:13;98057.06;;;14.73;100.00
10474;BME280;5284;50.446;7.904;2022-10-15T22:32:16;98055.03;;;14.75;100.00
10474;BME280;5284;50.446;7.904;2022-10-15T22:37:21;98047.00;;;14.75;100.00
10474;BME280;5284;50.446;7.904;2022-10-15T22:42:25;98055.91;;;14.75;100.00
10474;BME280;5284;50.446;7.904;2022-10-15T22:47:28;98048.84;;;14.74;100.00
10474;BME280;5284;50.446;7.904;2022-10-15T22:52:33;98049.19;;;14.71;100.00
10474;BME280;5284;50.446;7.904;2022-10-15T22:57:36;98049.69;;;14.67;100.00
10474;BME280;5284;50.446;7.904;2022-10-15T23:02:39;98053.72;;;14.63;100.00
10474;BME280;5284;50.446;7.904;2022-10-15T23:07:43;98061.44;;;14.58;100.00
10474;BME280;5284;50.446;7.904;2022-10-15T23:12:46;98068.47;;;14.51;100.00
10474;BME280;5284;50.446;7.904;2022-10-15T23:17:49;98065.44;;;14.46;100.00
10474;BME280;5284;50.446;7.904;2022-10-15T23:22:53;98077.50;;;14.34;100.00
10474;BME280;5284;50.446;7.904;2022-10-15T23:27:56;98081.66;;;14.28;100.00
10474;BME280;5284;50.446;7.904;2022-10-15T23:33:00;98076.63;;;14.25;100.00
10474;BME280;5284;50.446;7.904;2022-10-15T23:38:05;98077.28;;;14.19;100.00
10474;BME280;5284;50.446;7.904;2022-10-15T23:43:07;98078.97;;;14.20;100.00
10474;BME280;5284;50.446;7.904;2022-10-15T23:48:10;98090.56;;;14.21;100.00
10474;BME280;5284;50.446;7.904;2022-10-15T23:53:15;98080.31;;;14.16;100.00
10474;BME280;5284;50.446;7.904;2022-10-15T23:58:18;98088.97;;;14.10;100.00
